ZSSS/SHA METAR and TAF weather

Enter ICAO airport designator
Station Type Date Time Source
ZSSS METAR 2019/02/16 18:00 UTC NOAA

ZSSS 161800Z 01005MPS CAVOK 03/M02 Q1029 NOSIG


Station Type Date Time Source
ZSSS Decoded METAR 2019/02/16 18:00 UTC NOAA

Shanghai / Hongqiao, China (ZSSS) 31-10N 121-26E 3M
Feb 16, 2019 - 01:00 PM EST / 2019.02.16 1800 UTC
Wind: from the N (010 degrees) at 11 MPH (10 KT):0
Visibility: greater than 7 mile(s):0
Temperature: 37 F (3 C)
Dew Point: 28 F (-2 C)
Relative Humidity: 69%
Pressure (altimeter): 30.39 in. Hg (1029 hPa)
ob: ZSSS 161800Z 01005MPS CAVOK 03/M02 Q1029 NOSIG
cycle: 18

Station Type Date Time Source
ZSSS TAF 2019/02/16 18:03 UTC NOAA

TAF TAF ZSSS 161510Z 1618/1718 36004MPS 6000 BKN016 TX08/1706Z TN02/1619Z


Example: see airport list